createdAt,value
2018-12-27T00:00:19.048Z,91.90
2018-12-27T00:02:45.993Z,91.80
2018-12-27T00:05:12.965Z,92.40
2018-12-27T00:07:39.931Z,92.10
2018-12-27T00:10:06.882Z,92.00
2018-12-27T00:12:33.839Z,91.90
2018-12-27T00:15:00.829Z,91.80
2018-12-27T00:17:27.793Z,91.80
2018-12-27T00:19:54.727Z,91.90
2018-12-27T00:22:21.720Z,92.20
2018-12-27T00:24:48.675Z,92.20
2018-12-27T00:27:15.645Z,92.10
2018-12-27T00:29:42.811Z,92.20
2018-12-27T00:32:09.813Z,92.10
2018-12-27T00:34:36.744Z,92.00
2018-12-27T00:37:03.707Z,92.00
2018-12-27T00:39:30.704Z,91.90
2018-12-27T00:41:57.652Z,91.90
2018-12-27T00:44:24.648Z,92.00
2018-12-27T00:46:51.587Z,91.80
2018-12-27T00:49:18.556Z,91.60
2018-12-27T00:51:45.549Z,91.60
2018-12-27T00:54:12.501Z,91.60
2018-12-27T00:56:39.452Z,91.40
2018-12-27T00:59:06.430Z,91.60
2018-12-27T01:01:33.372Z,91.90
2018-12-27T01:04:00.335Z,91.90
2018-12-27T01:06:27.297Z,91.50
2018-12-27T01:08:54.245Z,91.50
2018-12-27T01:11:21.269Z,91.70
2018-12-27T01:13:48.227Z,91.70
2018-12-27T01:16:15.176Z,91.70
2018-12-27T01:18:42.123Z,91.80
2018-12-27T01:21:09.078Z,91.80
2018-12-27T01:23:36.059Z,91.90
2018-12-27T01:26:03.000Z,91.40
2018-12-27T01:28:29.983Z,91.50
2018-12-27T01:30:57.374Z,91.50
2018-12-27T01:33:24.322Z,91.70
2018-12-27T01:35:51.293Z,91.60
2018-12-27T01:38:18.227Z,91.40
2018-12-27T01:40:45.181Z,91.30
2018-12-27T01:43:12.141Z,91.00
2018-12-27T01:45:39.105Z,90.90
2018-12-27T01:48:06.069Z,91.00
2018-12-27T01:50:33.029Z,91.10
2018-12-27T01:52:59.981Z,91.30
2018-12-27T01:55:26.925Z,91.30
2018-12-27T01:57:53.921Z,91.50
2018-12-27T02:00:20.866Z,91.60
2018-12-27T02:02:47.857Z,91.70
2018-12-27T02:05:14.843Z,91.80
2018-12-27T02:07:41.800Z,92.10
2018-12-27T02:10:08.833Z,91.70
2018-12-27T02:12:35.759Z,91.70
2018-12-27T02:15:02.665Z,91.80
2018-12-27T02:17:29.612Z,91.40
2018-12-27T02:19:56.572Z,91.40
2018-12-27T02:22:23.517Z,91.40
2018-12-27T02:24:50.464Z,91.40
2018-12-27T02:27:17.432Z,91.70
2018-12-27T02:29:44.407Z,91.60
2018-12-27T02:32:11.673Z,91.50
2018-12-27T02:34:38.670Z,91.30
2018-12-27T02:37:05.507Z,91.30
2018-12-27T02:39:32.444Z,91.30
2018-12-27T02:41:59.449Z,91.00
2018-12-27T02:44:26.424Z,91.20
2018-12-27T02:46:53.361Z,91.10
2018-12-27T02:49:20.328Z,91.30
2018-12-27T02:51:47.285Z,91.30
2018-12-27T02:54:14.244Z,91.10
2018-12-27T02:56:41.229Z,91.00
2018-12-27T02:59:08.235Z,90.90
2018-12-27T03:01:35.210Z,91.00
2018-12-27T03:04:02.175Z,90.90
2018-12-27T03:06:29.130Z,91.00
2018-12-27T03:08:56.107Z,91.30
2018-12-27T03:11:23.052Z,91.50
2018-12-27T03:13:50.007Z,91.30
2018-12-27T03:16:17.005Z,91.20
2018-12-27T03:18:43.945Z,91.20
2018-12-27T03:21:10.905Z,91.20
2018-12-27T03:23:37.873Z,91.20
2018-12-27T03:26:04.858Z,91.20
2018-12-27T03:28:31.808Z,91.20
2018-12-27T03:30:58.778Z,91.10
2018-12-27T03:33:26.291Z,91.20
2018-12-27T03:35:53.268Z,91.30
2018-12-27T03:38:20.252Z,91.50
2018-12-27T03:40:47.193Z,91.60
2018-12-27T03:43:14.163Z,91.60
2018-12-27T03:45:41.148Z,91.50
2018-12-27T03:48:08.149Z,91.40
2018-12-27T03:50:35.125Z,91.40
2018-12-27T03:53:02.056Z,91.60
2018-12-27T03:55:29.030Z,91.70
2018-12-27T03:57:56.072Z,91.90
2018-12-27T04:00:23.020Z,91.80
2018-12-27T04:02:50.037Z,91.70
2018-12-27T04:05:16.978Z,91.50
2018-12-27T04:07:43.960Z,91.40
2018-12-27T04:10:11.171Z,91.30
2018-12-27T04:12:38.125Z,91.20
2018-12-27T04:15:06.569Z,91.20
2018-12-27T04:17:33.575Z,91.20
2018-12-27T04:20:00.531Z,91.40
2018-12-27T04:22:27.628Z,91.60
2018-12-27T04:24:54.757Z,91.70
2018-12-27T04:27:21.825Z,91.70
2018-12-27T04:29:48.910Z,91.60
2018-12-27T04:32:16.016Z,91.50
2018-12-27T04:34:43.661Z,91.60
2018-12-27T04:37:10.732Z,91.60
2018-12-27T04:39:37.879Z,91.80
2018-12-27T04:42:04.950Z,91.70
2018-12-27T04:44:32.076Z,91.70
2018-12-27T04:46:59.198Z,91.80
2018-12-27T04:49:26.267Z,91.80
2018-12-27T04:51:53.334Z,91.70
2018-12-27T04:54:20.527Z,91.90
2018-12-27T04:56:47.614Z,91.70
2018-12-27T04:59:14.707Z,91.30
2018-12-27T05:01:41.803Z,91.20
2018-12-27T05:04:08.887Z,91.10
2018-12-27T05:06:36.032Z,91.00
2018-12-27T05:09:05.122Z,91.00
2018-12-27T05:11:32.205Z,91.10
2018-12-27T05:13:59.323Z,91.10
2018-12-27T05:16:26.447Z,91.10
2018-12-27T05:18:53.527Z,91.10
2018-12-27T05:21:20.619Z,91.00
2018-12-27T05:23:47.731Z,91.10
2018-12-27T05:26:14.819Z,91.10
2018-12-27T05:28:41.878Z,91.00
2018-12-27T05:31:08.978Z,90.90
2018-12-27T05:33:36.071Z,90.80
2018-12-27T05:36:03.582Z,90.90
2018-12-27T05:38:30.696Z,90.90
2018-12-27T05:40:57.768Z,91.00
2018-12-27T05:43:24.829Z,91.00
2018-12-27T05:45:51.934Z,90.90
2018-12-27T05:48:19.026Z,91.00
2018-12-27T05:50:46.118Z,91.20
2018-12-27T05:53:13.239Z,91.90
2018-12-27T05:55:40.317Z,91.50
2018-12-27T05:58:07.391Z,91.50
2018-12-27T06:00:34.483Z,91.20
2018-12-27T06:03:01.586Z,90.90
2018-12-27T06:05:28.660Z,91.10
2018-12-27T06:07:55.755Z,90.70
2018-12-27T06:10:22.849Z,90.50
2018-12-27T06:12:49.909Z,90.70
2018-12-27T06:15:17.045Z,90.90
2018-12-27T06:17:44.132Z,91.00
2018-12-27T06:20:11.189Z,91.00
2018-12-27T06:22:38.289Z,91.00
2018-12-27T06:25:05.361Z,91.60
2018-12-27T06:27:32.427Z,91.40
2018-12-27T06:29:59.520Z,91.30
2018-12-27T06:32:26.643Z,91.10
2018-12-27T06:34:53.736Z,91.30
2018-12-27T06:37:21.476Z,91.30
2018-12-27T06:39:48.660Z,91.40
2018-12-27T06:42:15.733Z,91.30
2018-12-27T06:44:42.837Z,91.20
2018-12-27T06:47:09.893Z,91.40
2018-12-27T06:49:36.982Z,91.30
2018-12-27T06:52:04.150Z,90.70
2018-12-27T06:54:31.452Z,91.20
2018-12-27T06:56:58.608Z,91.30
2018-12-27T06:59:25.795Z,91.00
2018-12-27T07:01:52.898Z,90.80
2018-12-27T07:04:19.986Z,90.90
2018-12-27T07:06:47.139Z,91.20
2018-12-27T07:09:14.195Z,91.00
2018-12-27T07:11:41.279Z,90.80
2018-12-27T07:14:08.416Z,91.00
2018-12-27T07:16:35.502Z,91.00
2018-12-27T07:19:02.598Z,90.80
2018-12-27T07:21:29.679Z,91.10
2018-12-27T07:23:56.765Z,91.30
2018-12-27T07:26:23.830Z,90.80
2018-12-27T07:28:50.914Z,90.70
2018-12-27T07:31:17.977Z,90.70
2018-12-27T07:33:45.044Z,90.90
2018-12-27T07:36:12.177Z,90.80
2018-12-27T07:38:39.890Z,90.70
2018-12-27T07:41:07.025Z,90.80
2018-12-27T07:43:34.144Z,90.70
2018-12-27T07:46:01.208Z,90.70
2018-12-27T07:48:28.307Z,91.00
2018-12-27T07:50:55.460Z,90.90
2018-12-27T07:53:22.616Z,90.60
2018-12-27T07:55:49.720Z,90.60
2018-12-27T07:58:16.838Z,90.50
2018-12-27T08:00:43.918Z,90.60
2018-12-27T08:03:11.001Z,90.80
2018-12-27T08:05:38.128Z,90.70
2018-12-27T08:08:05.211Z,90.60
2018-12-27T08:10:32.324Z,90.60
2018-12-27T08:12:59.443Z,90.60
2018-12-27T08:15:26.510Z,90.30
2018-12-27T08:17:53.595Z,90.00
2018-12-27T08:20:20.751Z,90.20
2018-12-27T08:22:47.883Z,90.10
2018-12-27T08:25:14.924Z,89.80
2018-12-27T08:27:42.048Z,89.40
2018-12-27T08:30:09.136Z,88.30
2018-12-27T08:32:36.222Z,87.80
2018-12-27T08:35:03.339Z,86.00
2018-12-27T08:37:30.436Z,83.00
2018-12-27T08:39:58.083Z,78.50
2018-12-27T08:42:25.211Z,74.60
2018-12-27T08:44:52.351Z,73.30
2018-12-27T08:47:32.437Z,72.30
2018-12-27T08:49:59.583Z,72.90
2018-12-27T08:52:26.692Z,75.60
2018-12-27T08:54:53.857Z,78.40
2018-12-27T08:57:21.039Z,79.60
2018-12-27T08:59:48.257Z,80.70
2018-12-27T09:02:15.423Z,81.10
2018-12-27T09:04:42.512Z,82.20
2018-12-27T09:07:09.687Z,82.50
2018-12-27T09:09:36.784Z,83.30
2018-12-27T09:12:03.882Z,83.90
2018-12-27T09:14:30.950Z,83.90
2018-12-27T09:16:58.098Z,82.70
2018-12-27T09:19:25.198Z,82.90
2018-12-27T09:21:52.336Z,83.20
2018-12-27T09:24:19.525Z,83.20
2018-12-27T09:26:46.620Z,82.80
2018-12-27T09:29:13.875Z,82.90
2018-12-27T09:31:41.095Z,83.20
2018-12-27T09:34:13.128Z,83.20
2018-12-27T09:36:39.652Z,84.20
2018-12-27T09:39:06.783Z,84.20
2018-12-27T09:41:34.407Z,83.90
2018-12-27T09:44:01.500Z,83.00
2018-12-27T09:46:28.610Z,83.50
2018-12-27T09:48:55.685Z,83.30
2018-12-27T09:51:22.821Z,83.20
2018-12-27T09:53:49.895Z,83.00
2018-12-27T09:56:17.044Z,83.40
2018-12-27T09:58:44.139Z,82.00
2018-12-27T10:01:11.280Z,80.80
2018-12-27T10:03:38.341Z,81.10
2018-12-27T10:06:05.443Z,80.20
2018-12-27T10:08:32.549Z,80.60
2018-12-27T10:10:59.632Z,80.60
2018-12-27T10:13:26.686Z,78.20
2018-12-27T10:15:53.806Z,76.70
2018-12-27T10:18:20.920Z,75.50
2018-12-27T10:20:47.995Z,75.80
2018-12-27T10:23:15.125Z,75.10
2018-12-27T10:25:42.218Z,75.20
2018-12-27T10:28:09.299Z,76.30
2018-12-27T10:30:36.402Z,76.20
2018-12-27T10:33:03.468Z,75.50
2018-12-27T10:35:30.540Z,75.40
2018-12-27T10:37:57.666Z,75.90
2018-12-27T10:40:24.732Z,76.40
2018-12-27T10:42:52.277Z,77.10
2018-12-27T10:45:19.392Z,77.30
2018-12-27T10:47:46.495Z,76.40
2018-12-27T10:50:13.591Z,76.30
2018-12-27T10:52:40.702Z,76.20
2018-12-27T10:55:07.815Z,75.20
2018-12-27T10:57:34.971Z,74.00
2018-12-27T11:00:02.057Z,74.80
2018-12-27T11:02:29.128Z,74.40
2018-12-27T11:04:57.498Z,71.60
2018-12-27T11:07:23.467Z,66.70
2018-12-27T11:09:50.615Z,59.80
2018-12-27T11:12:17.711Z,57.10
2018-12-27T11:14:44.851Z,54.50
2018-12-27T11:17:11.987Z,52.10
2018-12-27T11:19:39.102Z,49.80
2018-12-27T11:22:06.201Z,48.60
2018-12-27T11:24:33.290Z,47.30
2018-12-27T11:27:00.373Z,48.30
2018-12-27T11:29:27.473Z,49.60
2018-12-27T11:31:54.564Z,53.10
2018-12-27T11:34:21.655Z,56.70
2018-12-27T11:36:48.782Z,60.10
2018-12-27T11:39:15.869Z,62.20
2018-12-27T11:41:42.996Z,62.50
2018-12-27T11:44:10.355Z,60.70
2018-12-27T11:46:37.439Z,59.70
2018-12-27T11:49:04.549Z,59.80
2018-12-27T11:51:31.631Z,58.30
2018-12-27T11:53:58.724Z,58.80
2018-12-27T11:56:25.792Z,59.10
2018-12-27T11:58:52.891Z,59.80
2018-12-27T12:01:19.952Z,61.10
2018-12-27T12:03:47.034Z,63.50
2018-12-27T12:06:14.144Z,64.70
2018-12-27T12:08:41.265Z,65.80
2018-12-27T12:11:08.299Z,66.70
2018-12-27T12:13:35.415Z,67.60
2018-12-27T12:16:02.509Z,67.90
2018-12-27T12:18:29.586Z,67.70
2018-12-27T12:20:56.687Z,68.70
2018-12-27T12:23:23.781Z,68.80
2018-12-27T12:25:50.855Z,67.50
2018-12-27T12:28:17.958Z,65.50
2018-12-27T12:30:45.030Z,61.30
2018-12-27T12:33:12.144Z,58.60
2018-12-27T12:35:39.255Z,58.00
2018-12-27T12:38:06.340Z,58.60
2018-12-27T12:40:33.419Z,59.60
2018-12-27T12:43:00.529Z,61.70
2018-12-27T12:45:28.265Z,63.90
2018-12-27T12:47:55.327Z,64.10
2018-12-27T12:50:22.436Z,63.90
2018-12-27T12:52:49.529Z,65.20
2018-12-27T12:55:16.628Z,63.30
2018-12-27T12:57:43.755Z,63.70
2018-12-27T13:00:11.482Z,64.80
2018-12-27T13:02:38.542Z,66.10
2018-12-27T13:05:05.655Z,66.80
2018-12-27T13:07:32.747Z,67.10
2018-12-27T13:09:59.838Z,67.70
2018-12-27T13:12:32.129Z,67.30
2018-12-27T13:14:58.814Z,67.40
2018-12-27T13:17:25.904Z,68.80
2018-12-27T13:19:53.045Z,69.70
2018-12-27T13:22:20.115Z,69.90
2018-12-27T13:24:47.234Z,70.40
2018-12-27T13:27:16.485Z,71.20
2018-12-27T13:29:43.191Z,72.10
2018-12-27T13:32:10.363Z,72.90
2018-12-27T13:34:37.432Z,73.30
2018-12-27T13:37:04.523Z,73.30
2018-12-27T13:39:31.616Z,73.70
2018-12-27T13:41:58.719Z,74.00
2018-12-27T13:44:25.797Z,74.20
2018-12-27T13:46:53.295Z,74.90
2018-12-27T13:49:20.475Z,75.70
2018-12-27T13:51:47.555Z,75.60
2018-12-27T13:54:14.675Z,75.80
2018-12-27T13:56:41.854Z,76.80
2018-12-27T13:59:08.946Z,77.20
2018-12-27T14:01:36.029Z,77.60
2018-12-27T14:04:03.132Z,77.80
2018-12-27T14:06:32.775Z,77.60
2018-12-27T14:08:57.337Z,77.20
2018-12-27T14:11:24.449Z,77.20
2018-12-27T14:13:51.544Z,77.40
2018-12-27T14:16:18.610Z,77.90
2018-12-27T14:18:45.695Z,78.00
2018-12-27T14:21:12.793Z,78.80
2018-12-27T14:23:39.934Z,79.00
2018-12-27T14:26:07.051Z,78.80
2018-12-27T14:28:34.155Z,78.80
2018-12-27T14:31:01.284Z,78.80
2018-12-27T14:33:28.408Z,78.90
2018-12-27T14:35:55.511Z,78.50
2018-12-27T14:38:22.607Z,78.50
2018-12-27T14:40:49.753Z,78.70
2018-12-27T14:43:16.856Z,78.80
2018-12-27T14:45:43.975Z,79.00
2018-12-27T14:48:11.594Z,79.10
2018-12-27T14:50:38.852Z,79.30
2018-12-27T14:53:05.931Z,79.50
2018-12-27T14:55:33.100Z,79.80
2018-12-27T14:58:00.399Z,79.80
2018-12-27T15:00:27.831Z,79.90
2018-12-27T15:02:54.967Z,80.00
2018-12-27T15:05:22.054Z,80.10
2018-12-27T15:07:49.144Z,79.80
2018-12-27T15:10:16.337Z,80.00
2018-12-27T15:12:43.460Z,79.40
2018-12-27T15:15:10.559Z,79.10
2018-12-27T15:17:37.716Z,79.40
2018-12-27T15:20:05.022Z,80.00
2018-12-27T15:22:32.123Z,81.20
2018-12-27T15:24:59.282Z,82.10
2018-12-27T15:27:26.415Z,82.40
2018-12-27T15:29:53.564Z,82.70
2018-12-27T15:32:20.707Z,83.10
2018-12-27T15:34:47.864Z,83.00
2018-12-27T15:37:14.961Z,83.40
2018-12-27T15:39:42.064Z,82.90
2018-12-27T15:42:09.200Z,82.90
2018-12-27T15:44:36.263Z,82.80
2018-12-27T15:47:04.117Z,83.00
2018-12-27T15:49:31.484Z,82.90
2018-12-27T15:51:58.587Z,83.70
2018-12-27T15:54:25.711Z,83.70
2018-12-27T15:56:52.817Z,83.90
2018-12-27T15:59:19.907Z,83.80
2018-12-27T16:01:47.046Z,84.10
2018-12-27T16:04:14.184Z,84.20
2018-12-27T16:06:41.292Z,84.60
2018-12-27T16:09:08.426Z,84.30
2018-12-27T16:11:35.550Z,84.50
2018-12-27T16:14:02.623Z,85.40
2018-12-27T16:16:29.767Z,85.40
2018-12-27T16:18:56.906Z,85.70
2018-12-27T16:21:23.977Z,86.10
2018-12-27T16:23:51.103Z,86.60
2018-12-27T16:26:18.223Z,87.00
2018-12-27T16:28:45.342Z,87.20
2018-12-27T16:31:12.484Z,87.00
2018-12-27T16:33:39.595Z,86.90
2018-12-27T16:36:06.691Z,86.90
2018-12-27T16:38:33.861Z,87.40
2018-12-27T16:41:00.981Z,87.30
2018-12-27T16:43:28.280Z,87.30
2018-12-27T16:45:55.377Z,87.10
2018-12-27T16:48:22.519Z,88.40
2018-12-27T16:50:51.877Z,87.40
2018-12-27T16:53:19.089Z,87.40
2018-12-27T16:55:46.291Z,87.40
2018-12-27T16:58:13.389Z,87.00
2018-12-27T17:00:40.500Z,87.10
2018-12-27T17:03:07.583Z,87.40
2018-12-27T17:05:34.702Z,88.20
2018-12-27T17:08:01.832Z,89.00
2018-12-27T17:10:28.936Z,89.10
2018-12-27T17:12:56.095Z,89.30
2018-12-27T17:15:23.225Z,89.50
2018-12-27T17:17:50.360Z,90.20
2018-12-27T17:20:17.458Z,89.50
2018-12-27T17:22:48.826Z,89.40
2018-12-27T17:25:15.914Z,89.10
2018-12-27T17:27:43.012Z,89.00
2018-12-27T17:30:10.127Z,88.90
2018-12-27T17:32:37.260Z,88.50
2018-12-27T17:35:04.489Z,89.50
2018-12-27T17:37:31.678Z,89.30
2018-12-27T17:39:58.806Z,89.80
2018-12-27T17:42:25.969Z,90.10
2018-12-27T17:44:53.228Z,89.70
2018-12-27T17:47:20.299Z,89.40
2018-12-27T17:49:47.392Z,89.30
2018-12-27T17:52:14.772Z,89.60
2018-12-27T17:54:41.882Z,89.90
2018-12-27T17:57:09.692Z,89.70
2018-12-27T17:59:36.917Z,89.60
2018-12-27T18:02:04.047Z,90.10
2018-12-27T18:04:31.139Z,90.00
2018-12-27T18:06:58.314Z,90.20
2018-12-27T18:09:25.384Z,90.20
2018-12-27T18:11:52.523Z,89.90
2018-12-27T18:14:19.691Z,89.80
2018-12-27T18:16:46.826Z,90.10
2018-12-27T18:19:13.907Z,89.60
2018-12-27T18:21:41.043Z,89.70
2018-12-27T18:24:08.134Z,89.80
2018-12-27T18:26:35.247Z,90.00
2018-12-27T18:29:02.375Z,89.60
2018-12-27T18:31:29.479Z,90.10
2018-12-27T18:33:56.578Z,89.70
2018-12-27T18:36:23.748Z,89.80
2018-12-27T18:38:50.895Z,90.20
2018-12-27T18:41:17.979Z,90.30
2018-12-27T18:43:45.099Z,90.20
2018-12-27T18:46:12.300Z,90.30
2018-12-27T18:48:39.400Z,90.30
2018-12-27T18:51:06.520Z,90.40
2018-12-27T18:53:34.240Z,90.70
2018-12-27T18:56:01.363Z,90.70
2018-12-27T18:58:28.516Z,90.40
2018-12-27T19:00:55.619Z,90.10
2018-12-27T19:03:22.827Z,90.50
2018-12-27T19:05:49.854Z,90.40
2018-12-27T19:08:16.965Z,90.30
2018-12-27T19:11:09.356Z,90.10
2018-12-27T19:13:36.472Z,90.00
2018-12-27T19:16:03.796Z,90.30
2018-12-27T19:18:38.416Z,90.20
2018-12-27T19:21:14.847Z,90.30
2018-12-27T19:23:41.951Z,90.00
2018-12-27T19:26:09.072Z,90.40
2018-12-27T19:28:36.151Z,90.20
2018-12-27T19:31:03.298Z,90.30
2018-12-27T19:33:30.380Z,90.30
2018-12-27T19:35:57.475Z,90.10
2018-12-27T19:38:24.602Z,90.00
2018-12-27T19:40:51.730Z,90.20
2018-12-27T19:43:18.863Z,89.90
2018-12-27T19:45:46.011Z,90.10
2018-12-27T19:48:13.160Z,90.30
2018-12-27T19:50:40.267Z,90.50
2018-12-27T19:53:07.430Z,90.40
2018-12-27T19:55:35.026Z,90.70
2018-12-27T19:58:02.104Z,90.70
2018-12-27T20:00:29.439Z,90.80
2018-12-27T20:02:56.531Z,90.80
2018-12-27T20:05:23.692Z,91.10
2018-12-27T20:07:50.828Z,91.10
2018-12-27T20:10:17.989Z,90.80
2018-12-27T20:12:45.150Z,90.70
2018-12-27T20:15:12.354Z,90.40
2018-12-27T20:17:39.464Z,90.40
2018-12-27T20:20:07.020Z,90.70
2018-12-27T20:22:34.139Z,90.70
2018-12-27T20:25:01.264Z,90.70
2018-12-27T20:27:28.475Z,90.70
2018-12-27T20:29:55.628Z,90.70
2018-12-27T20:32:22.749Z,90.60
2018-12-27T20:34:49.829Z,90.20
2018-12-27T20:37:16.957Z,90.20
2018-12-27T20:39:44.043Z,90.80
2018-12-27T20:42:11.149Z,90.70
2018-12-27T20:44:38.261Z,90.60
2018-12-27T20:47:05.352Z,90.80
2018-12-27T20:49:32.464Z,91.00
2018-12-27T20:51:59.571Z,90.70
2018-12-27T20:54:26.642Z,90.50
2018-12-27T20:56:54.419Z,90.90
2018-12-27T20:59:21.521Z,91.00
2018-12-27T21:01:48.592Z,91.10
2018-12-27T21:04:15.663Z,91.00
2018-12-27T21:06:42.760Z,91.30
2018-12-27T21:09:09.812Z,91.10
2018-12-27T21:11:36.903Z,90.60
2018-12-27T21:14:04.023Z,90.70
2018-12-27T21:16:31.119Z,90.90
2018-12-27T21:18:58.210Z,91.00
2018-12-27T21:21:25.359Z,91.40
2018-12-27T21:23:52.442Z,91.00
2018-12-27T21:26:19.524Z,90.60
2018-12-27T21:28:46.992Z,90.90
2018-12-27T21:31:14.090Z,90.80
2018-12-27T21:33:41.171Z,91.00
2018-12-27T21:36:08.296Z,90.70
2018-12-27T21:38:36.491Z,90.80
2018-12-27T21:41:02.456Z,90.60
2018-12-27T21:43:29.565Z,90.30
2018-12-27T21:45:56.675Z,90.30
2018-12-27T21:48:23.747Z,90.10
2018-12-27T21:50:50.857Z,90.20
2018-12-27T21:53:17.966Z,90.60
2018-12-27T21:55:45.045Z,90.40
2018-12-27T21:58:12.485Z,90.40
2018-12-27T22:00:39.551Z,90.70
2018-12-27T22:03:06.621Z,91.30
2018-12-27T22:05:33.728Z,91.30
2018-12-27T22:08:00.837Z,90.70
2018-12-27T22:10:27.875Z,90.70
2018-12-27T22:12:54.992Z,90.60
2018-12-27T22:15:22.055Z,90.50
2018-12-27T22:17:49.161Z,90.50
2018-12-27T22:20:16.270Z,90.60
2018-12-27T22:22:43.328Z,90.50
2018-12-27T22:25:10.429Z,90.60
2018-12-27T22:27:37.521Z,90.40
2018-12-27T22:30:05.500Z,90.50
2018-12-27T22:32:32.590Z,90.70
2018-12-27T22:34:59.686Z,90.80
2018-12-27T22:37:27.112Z,90.60
2018-12-27T22:39:53.827Z,90.60
2018-12-27T22:42:20.947Z,90.50
2018-12-27T22:44:48.024Z,90.60
2018-12-27T22:47:15.093Z,90.50
2018-12-27T22:49:42.325Z,90.60
2018-12-27T22:52:09.382Z,91.10
2018-12-27T22:54:36.471Z,90.80
2018-12-27T22:57:03.591Z,90.90
2018-12-27T22:59:31.163Z,91.10
2018-12-27T23:01:58.243Z,91.20
2018-12-27T23:04:25.360Z,91.40
2018-12-27T23:06:52.451Z,91.40
2018-12-27T23:09:19.528Z,91.50
2018-12-27T23:11:46.633Z,91.30
2018-12-27T23:14:13.699Z,91.80
2018-12-27T23:16:40.774Z,91.90
2018-12-27T23:19:07.858Z,92.00
2018-12-27T23:21:34.931Z,91.50
2018-12-27T23:24:02.003Z,91.00
2018-12-27T23:26:29.159Z,91.00
2018-12-27T23:28:56.247Z,91.10
2018-12-27T23:31:23.323Z,91.30
2018-12-27T23:33:50.427Z,91.10
2018-12-27T23:36:17.499Z,91.00
2018-12-27T23:38:50.270Z,91.30
2018-12-27T23:41:11.698Z,91.20
2018-12-27T23:43:38.763Z,91.20
2018-12-27T23:46:05.863Z,91.30
2018-12-27T23:48:33.020Z,91.20
2018-12-27T23:51:00.095Z,91.30
2018-12-27T23:53:27.162Z,91.70
2018-12-27T23:55:54.260Z,91.70
2018-12-27T23:58:21.328Z,91.40
